Accueil
METAR-TAF:

METAR-TAF

Aéroports :

Berlin, New Hampshire, États-Unis

latitude: 44-34-34N, longitude: 071-10-43W, altitude: 353 m

Observation

Le bulletin a été fait il y a 1 heure et 1 minutes, à 18:52 UTC
Vent 9 kt de sud-ouest avec des rafales jusqu'à 16 kt, variant entre sud/sud-ouest et ouest
Température 18°C
Humidité 56%
Pression 1018 hPa
Visibilité: 16.1 km
Nuages fragmentés à une hauteur de 7000 ft
Ciel couvert à une hauteur de 8000 ft
pluie faible

METAR: KBML 221852Z AUTO 22009G16KT 200V260 10SM -RA BKN070 OVC080 18/09 A3007 RMK AO2 RAB32 SLP185 P0000 T01830089

Heure: 15:53 (19:53 UTC)


TAF: absent

Observations et prévisions météorologiques de plus de 4000 aéroports (messages METAR et TAF).

Les stations disponibles sont représentées par des disques jaunes et rouges sur la carte.

Passer la souris dessus pour voir le nom de la station.

Cliquer dessus pour voir les observations et prévisions météorologiques.

Pour changer de carte: cliquez sur les boutons verts avec une croix noire pour zoomer, sur le bouton vert avec un tiret pour effectuer un zoom arrière, ou sur les flèches vertes pour les cartes adjacentes.


METAR-TAF: